Weather at St. Paul Airport

Public forecast

Using degrees Celsius for public forecast. Weather courtesy of forecast.io.

Closest aviation weather report (METAR) to St. Paul Airport

Closest report is CFB Cold Lake, 45.9 nm (85.0 km) ENE. Retrieved 2021/01/20 03:38 UTC (0 seconds ago):

CYOD 200338Z 27016G29KT 15SM SCT120 05/M04 A2925 RMK AC4 SLP929

Closest aviation forecast (TAF) to St. Paul Airport

Closest forecast is CFB Cold Lake, 45.9 nm (85.0 km) ENE. Retrieved 2021-01-20 00:35 UTC (3 hours ago):

TAF CYOD 192330Z 2000/2024 24010G20KT P6SM OVC100 BECMG 2000/2001 30012G22KT FM200100 30012G22KT P6SM -SHRA SCT020 OVC030 TEMPO 2001/2005 BKN020 OVC030 FM200500 29025G38KT P6SM -SHSN BKN040 FM201000 29020G30KT P6SM BKN050 BECMG 2016/2018 29015G25KT SCT050 BKN220 FM202000 29015G25KT P6SM -SHSN OVC050 BECMG 2022/2024 34012G22KT RMK NXT FCST BY 200600Z